Time;durP1;ratioP1;P1;durP2;ratioP2;P2;SDS_P1;SDS_P2;PMS_P1;PMS_P2;Temp;Humidity;BMP_temperature;BMP_pressure;BME280_temperature;BME280_humidity;BME280_pressure;Samples;Min_cycle;Max_cycle;Signal;HPM_P1;HPM_P2
2021/05/12 00:01:55;;;;;;;1.65;0.80;;;;;;;8.08;80.86;91894.28;4986070;28;20412;-77
2021/05/12 00:04:21;;;;;;;1.02;0.68;;;;;;;8.02;83.13;91898.81;4971329;28;20077;-78
2021/05/12 00:06:47;;;;;;;0.95;0.68;;;;;;;7.95;84.29;91893.19;4971555;28;20035;-78
2021/05/12 00:09:12;;;;;;;0.52;0.50;;;;;;;7.90;84.14;91903.69;4976060;28;20090;-77
2021/05/12 00:11:38;;;;;;;0.40;0.40;;;;;;;7.84;84.80;91903.00;4973491;28;20034;-77
2021/05/12 00:14:04;;;;;;;0.57;0.57;;;;;;;7.88;82.50;91893.56;4971033;28;20501;-76
2021/05/12 00:16:30;;;;;;;2.08;0.70;;;;;;;7.85;82.88;91895.94;4969068;28;20050;-76
2021/05/12 00:18:55;;;;;;;0.68;0.60;;;;;;;7.80;83.74;91890.81;4960765;28;20035;-78
2021/05/12 00:21:30;;;;;;;1.20;0.80;;;;;;;7.78;84.41;91898.13;4956849;28;20089;-78
2021/05/12 00:24:01;;;;;;;0.90;0.68;;;;;;;7.74;85.90;91894.53;4972865;28;20064;-78
2021/05/12 00:26:35;;;;;;;0.47;0.47;;;;;;;7.70;85.94;91896.94;4967853;28;20043;-78
2021/05/12 00:29:01;;;;;;;4.45;0.43;;;;;;;7.64;86.96;91898.06;4971599;28;20474;-76
2021/05/12 00:31:26;;;;;;;1.85;0.40;;;;;;;7.59;86.88;91885.91;4964493;28;20090;-78
2021/05/12 00:33:52;;;;;;;0.50;0.50;;;;;;;7.54;87.16;91893.75;4975600;28;20097;-78
2021/05/12 00:36:17;;;;;;;0.65;0.60;;;;;;;7.49;87.44;91891.22;4973755;28;20456;-76
2021/05/12 00:38:43;;;;;;;0.63;0.52;;;;;;;7.46;87.52;91887.38;4980289;28;20054;-77
2021/05/12 00:41:08;;;;;;;1.52;0.57;;;;;;;7.44;88.00;91894.69;4974022;28;20029;-77
2021/05/12 00:43:34;;;;;;;0.47;0.40;;;;;;;7.44;87.82;91889.47;4968327;28;20138;-77
2021/05/12 00:46:00;;;;;;;0.50;0.50;;;;;;;7.43;88.13;91887.94;4965273;28;20123;-77
2021/05/12 00:48:25;;;;;;;0.52;0.50;;;;;;;7.43;87.97;91881.94;4970648;28;20039;-76
2021/05/12 00:50:51;;;;;;;0.50;0.50;;;;;;;7.42;87.64;91888.97;4971177;28;20737;-78
2021/05/12 00:53:16;;;;;;;0.55;0.50;;;;;;;7.41;88.06;91886.66;4972834;28;20094;-76
2021/05/12 00:55:42;;;;;;;0.38;0.38;;;;;;;7.40;88.46;91888.47;4953676;28;20489;-77
2021/05/12 00:58:08;;;;;;;0.52;0.40;;;;;;;7.39;88.14;91891.38;4954977;28;20413;-77
2021/05/12 01:00:33;;;;;;;0.40;0.40;;;;;;;7.35;89.02;91893.00;4962598;28;20023;-78
2021/05/12 01:03:02;;;;;;;2.15;0.40;;;;;;;7.34;88.58;91894.03;4969142;28;20043;-77
2021/05/12 01:05:58;;;;;;;0.30;0.30;;;;;;;7.33;88.65;91888.06;4957860;28;20481;-77
2021/05/12 01:08:24;;;;;;;0.40;0.40;;;;;;;7.32;88.08;91880.50;4952456;28;20068;-77
2021/05/12 01:10:49;;;;;;;0.40;0.40;;;;;;;7.28;88.34;91875.88;4968920;28;20047;-78
2021/05/12 01:13:15;;;;;;;0.57;0.57;;;;;;;7.25;87.88;91866.03;4980201;28;20034;-77
2021/05/12 01:15:42;;;;;;;3.10;0.40;;;;;;;7.24;87.87;91869.69;4972128;28;20058;-77
2021/05/12 01:18:09;;;;;;;0.73;0.40;;;;;;;7.24;87.81;91859.25;4969158;28;20066;-77
2021/05/12 01:20:54;;;;;;;1.17;0.60;;;;;;;7.22;87.26;91856.16;4980365;28;20101;-77
2021/05/12 01:23:26;;;;;;;0.47;0.47;;;;;;;7.23;87.55;91852.53;4975714;28;20033;-78
2021/05/12 01:25:54;;;;;;;0.47;0.47;;;;;;;7.21;86.85;91854.63;4955382;28;20113;-77
2021/05/12 01:28:22;;;;;;;4.68;0.50;;;;;;;7.20;86.80;91853.06;4997642;28;20039;-77
2021/05/12 01:31:05;;;;;;;0.60;0.60;;;;;;;7.17;86.66;91845.06;4985654;28;20078;-77
2021/05/12 01:33:31;;;;;;;0.45;0.45;;;;;;;7.17;86.02;91848.44;4990318;28;20034;-78
2021/05/12 01:35:57;;;;;;;0.57;0.50;;;;;;;7.22;83.61;91856.16;4982897;28;20035;-77
2021/05/12 01:38:24;;;;;;;0.77;0.52;;;;;;;7.27;81.14;91840.50;4993665;28;20121;-77
2021/05/12 01:40:50;;;;;;;0.65;0.60;;;;;;;7.27;83.77;91834.50;4979180;28;20026;-76
2021/05/12 01:43:16;;;;;;;2.78;0.50;;;;;;;7.26;82.26;91836.31;4985725;28;20031;-77
2021/05/12 01:45:41;;;;;;;0.82;0.50;;;;;;;7.28;83.13;91834.22;4996219;28;20508;-77
2021/05/12 01:48:10;;;;;;;2.58;0.50;;;;;;;7.25;83.29;91832.19;4995768;28;20129;-78
2021/05/12 01:50:36;;;;;;;0.50;0.50;;;;;;;7.22;83.46;91824.91;4995302;28;20030;-74
2021/05/12 01:53:02;;;;;;;0.80;0.47;;;;;;;7.27;79.66;91822.28;4992196;28;20485;-77
2021/05/12 01:55:28;;;;;;;0.50;0.50;;;;;;;7.33;77.36;91817.75;4994912;28;20108;-78
2021/05/12 01:57:54;;;;;;;4.05;0.60;;;;;;;7.42;78.51;91818.66;4985810;28;20113;-77
2021/05/12 02:00:27;;;;;;;0.50;0.50;;;;;;;7.53;77.85;91810.72;4978280;28;20027;-78
2021/05/12 02:02:53;;;;;;;0.50;0.50;;;;;;;7.47;79.46;91804.78;4995513;28;20034;-77
2021/05/12 02:05:23;;;;;;;0.32;0.32;;;;;;;7.42;78.81;91807.47;4986786;28;20416;-78
2021/05/12 02:07:55;;;;;;;1.08;0.40;;;;;;;7.38;76.82;91807.25;4990141;28;20511;-78
2021/05/12 02:10:22;;;;;;;0.40;0.40;;;;;;;7.56;74.00;91799.72;4996204;28;20038;-78
2021/05/12 02:12:47;;;;;;;0.40;0.40;;;;;;;7.54;77.00;91794.78;4993812;28;20053;-77
2021/05/12 02:15:13;;;;;;;1.05;0.50;;;;;;;7.47;75.92;91799.59;4987055;28;20074;-78
2021/05/12 02:17:39;;;;;;;0.47;0.47;;;;;;;7.53;73.69;91801.06;4959074;28;20509;-77
2021/05/12 02:20:07;;;;;;;0.45;0.45;;;;;;;7.53;73.32;91797.69;4962142;28;20041;-77
2021/05/12 02:22:32;;;;;;;2.08;0.50;;;;;;;7.53;75.13;91798.47;4966156;28;20143;-78
2021/05/12 02:24:58;;;;;;;0.40;0.40;;;;;;;7.49;75.40;91797.47;4936657;29;20066;-77
2021/05/12 02:27:24;;;;;;;1.92;0.40;;;;;;;7.49;72.75;91787.81;4960055;28;20031;-75
2021/05/12 02:29:49;;;;;;;2.05;0.40;;;;;;;7.48;74.62;91788.13;4956934;29;20501;-77
2021/05/12 02:32:15;;;;;;;1.20;0.47;;;;;;;7.46;74.67;91790.25;4966423;28;20037;-77
2021/05/12 02:34:41;;;;;;;0.70;0.40;;;;;;;7.42;74.62;91794.47;4960827;28;20042;-77
2021/05/12 02:37:06;;;;;;;0.73;0.40;;;;;;;7.36;75.88;91798.19;4973270;28;20058;-77
2021/05/12 02:39:32;;;;;;;4.00;0.60;;;;;;;7.26;78.59;91791.31;4951185;28;20039;-78
2021/05/12 02:41:58;;;;;;;0.30;0.30;;;;;;;7.16;79.78;91792.22;4957788;28;20548;-76
2021/05/12 02:44:23;;;;;;;0.40;0.40;;;;;;;7.07;79.73;91796.53;4975325;28;20130;-77
2021/05/12 02:46:49;;;;;;;0.40;0.40;;;;;;;7.00;80.23;91789.06;4958376;28;20031;-77
2021/05/12 02:49:15;;;;;;;1.38;0.60;;;;;;;6.98;80.25;91796.38;4955824;28;20063;-77
2021/05/12 02:51:41;;;;;;;2.90;0.50;;;;;;;7.24;74.48;91796.78;4964493;28;20039;-76
2021/05/12 02:54:07;;;;;;;1.02;0.52;;;;;;;7.22;75.60;91788.47;4974875;28;20452;-77
2021/05/12 02:56:33;;;;;;;0.35;0.35;;;;;;;7.26;75.15;91797.28;4956923;28;20027;-77
2021/05/12 02:58:58;;;;;;;0.30;0.30;;;;;;;7.29;73.97;91788.91;4958855;28;20124;-78
2021/05/12 03:01:24;;;;;;;0.45;0.45;;;;;;;7.26;75.13;91797.28;4971805;28;20031;-77
2021/05/12 03:03:50;;;;;;;0.32;0.32;;;;;;;7.19;75.75;91804.66;4975376;28;20039;-76
2021/05/12 03:06:16;;;;;;;2.90;0.50;;;;;;;7.12;76.31;91800.88;4982314;28;20059;-78
2021/05/12 03:08:41;;;;;;;0.30;0.30;;;;;;;7.08;75.41;91803.25;4974046;28;20046;-76
2021/05/12 03:11:07;;;;;;;0.40;0.40;;;;;;;7.01;76.24;91792.44;4960425;28;20035;-77
2021/05/12 03:13:34;;;;;;;0.40;0.40;;;;;;;6.96;77.58;91797.69;4958453;28;20073;-77
2021/05/12 03:16:00;;;;;;;0.43;0.40;;;;;;;6.92;77.23;91799.31;4969339;28;20035;-78
2021/05/12 03:18:26;;;;;;;0.30;0.30;;;;;;;6.95;73.88;91799.50;4918735;29;20120;-76
2021/05/12 03:20:53;;;;;;;0.50;0.50;;;;;;;7.03;72.76;91800.72;4948281;29;20031;-77
2021/05/12 03:23:18;;;;;;;0.45;0.45;;;;;;;7.11;72.52;91800.09;4934364;29;20097;-77
2021/05/12 03:25:44;;;;;;;0.40;0.40;;;;;;;7.31;69.13;91801.63;4936274;29;20510;-77
2021/05/12 03:28:10;;;;;;;0.30;0.30;;;;;;;7.44;68.49;91808.75;4945937;28;20032;-76
2021/05/12 03:30:38;;;;;;;3.20;0.47;;;;;;;7.55;68.49;91811.22;4927384;29;20031;-77
2021/05/12 03:33:09;;;;;;;2.65;0.40;;;;;;;7.55;69.59;91811.22;4935755;29;20110;-78
2021/05/12 03:35:36;;;;;;;0.35;0.35;;;;;;;7.60;68.27;91808.53;4936232;29;20035;-77
2021/05/12 03:38:03;;;;;;;0.40;0.40;;;;;;;7.67;66.89;91814.91;4922024;29;20046;-75
2021/05/12 03:40:30;;;;;;;0.40;0.40;;;;;;;7.84;64.37;91808.41;4938827;29;20023;-77
2021/05/12 03:42:58;;;;;;;1.00;0.60;;;;;;;7.91;65.03;91811.44;4938957;29;20156;-76
2021/05/12 03:45:24;;;;;;;0.30;0.30;;;;;;;7.94;65.74;91813.44;4929139;29;20036;-77
2021/05/12 03:47:51;;;;;;;0.35;0.35;;;;;;;7.96;64.77;91816.53;4935573;29;20047;-78
2021/05/12 03:50:18;;;;;;;0.40;0.40;;;;;;;7.96;65.43;91813.94;4936165;29;20387;-76
2021/05/12 03:52:43;;;;;;;0.52;0.40;;;;;;;7.92;65.39;91820.78;4924639;29;20115;-75
2021/05/12 03:55:10;;;;;;;0.52;0.43;;;;;;;7.97;63.83;91812.91;4943051;29;20035;-77
2021/05/12 03:57:36;;;;;;;1.48;0.35;;;;;;;7.95;65.16;91812.41;4939197;29;20591;-78
2021/05/12 04:00:05;;;;;;;0.47;0.47;;;;;;;7.92;65.88;91805.94;4934401;29;20367;-78
2021/05/12 04:02:39;;;;;;;0.55;0.50;;;;;;;7.86;66.70;91809.69;4936271;29;20422;-79
2021/05/12 04:05:06;;;;;;;0.40;0.40;;;;;;;7.88;64.89;91814.59;4947618;28;20142;-75
2021/05/12 04:07:32;;;;;;;0.40;0.40;;;;;;;7.87;65.90;91816.41;4927326;29;20031;-79
2021/05/12 04:09:57;;;;;;;0.38;0.38;;;;;;;7.92;63.93;91818.16;4918722;29;20047;-78
2021/05/12 04:12:23;;;;;;;0.45;0.45;;;;;;;8.03;62.58;91816.94;4934394;29;20055;-78
2021/05/12 04:14:50;;;;;;;0.40;0.40;;;;;;;8.07;63.39;91817.94;4938534;28;20058;-78
2021/05/12 04:17:15;;;;;;;0.57;0.50;;;;;;;8.20;62.20;91811.19;4950049;28;20079;-81
2021/05/12 04:19:41;;;;;;;0.73;0.50;;;;;;;8.18;64.01;91815.16;4964560;28;20039;-78
2021/05/12 04:22:06;;;;;;;0.40;0.40;;;;;;;8.22;62.73;91818.72;4963051;28;20407;-78
2021/05/12 04:24:32;;;;;;;0.30;0.30;;;;;;;8.26;62.38;91822.31;4959480;28;20039;-77
2021/05/12 04:26:58;;;;;;;1.52;0.35;;;;;;;8.29;62.63;91824.34;4953326;28;20035;-78
2021/05/12 04:29:23;;;;;;;0.40;0.40;;;;;;;8.37;63.01;91826.28;4955422;28;20489;-78
2021/05/12 04:31:49;;;;;;;0.65;0.40;;;;;;;8.43;60.50;91822.56;4954923;28;20324;-77
2021/05/12 04:34:15;;;;;;;0.30;0.30;;;;;;;8.51;59.80;91816.69;4973484;28;20750;-77
2021/05/12 04:36:40;;;;;;;1.98;0.43;;;;;;;8.50;61.23;91824.78;4987956;28;20033;-78
2021/05/12 04:39:06;;;;;;;0.32;0.32;;;;;;;8.49;60.59;91831.06;4953824;28;20479;-78
2021/05/12 04:41:33;;;;;;;1.80;0.40;;;;;;;8.50;61.14;91830.00;4956547;28;20023;-78
2021/05/12 04:43:59;;;;;;;1.58;0.50;;;;;;;8.48;62.13;91821.69;4970545;28;20034;-78
2021/05/12 04:46:25;;;;;;;0.40;0.40;;;;;;;8.50;60.97;91830.78;4970707;28;20058;-78
2021/05/12 04:48:53;;;;;;;0.40;0.40;;;;;;;8.52;60.63;91839.09;4972485;28;20094;-77
2021/05/12 04:51:20;;;;;;;0.30;0.30;;;;;;;8.55;60.52;91833.28;4972175;28;20035;-77
2021/05/12 04:53:46;;;;;;;0.50;0.50;;;;;;;8.60;60.41;91829.03;4973294;28;20034;-77
2021/05/12 04:56:12;;;;;;;0.65;0.60;;;;;;;8.61;60.83;91830.59;4971018;28;20047;-78
2021/05/12 04:58:38;;;;;;;0.30;0.30;;;;;;;8.62;61.20;91832.13;4966808;28;20034;-77
2021/05/12 05:01:04;;;;;;;0.32;0.32;;;;;;;8.62;62.19;91842.56;4959693;28;20375;-81
2021/05/12 05:03:30;;;;;;;0.30;0.30;;;;;;;8.64;62.48;91843.06;4953400;28;20031;-78
2021/05/12 05:05:55;;;;;;;0.82;0.55;;;;;;;8.66;62.51;91848.75;4953099;28;20442;-78
2021/05/12 05:08:21;;;;;;;0.50;0.40;;;;;;;8.70;62.52;91849.72;4954689;28;20027;-78
2021/05/12 05:10:48;;;;;;;0.50;0.50;;;;;;;8.67;63.55;91850.28;4954682;28;20041;-79
2021/05/12 05:13:14;;;;;;;0.60;0.60;;;;;;;8.63;64.14;91854.56;4960882;28;20063;-77
2021/05/12 05:15:40;;;;;;;1.08;0.55;;;;;;;8.61;62.02;91851.47;4963694;28;20042;-78
2021/05/12 05:18:05;;;;;;;0.50;0.50;;;;;;;8.68;61.77;91857.06;4967470;28;20057;-77
2021/05/12 05:20:32;;;;;;;0.40;0.40;;;;;;;8.84;60.72;91857.56;4983483;28;20503;-78
2021/05/12 05:22:58;;;;;;;0.50;0.50;;;;;;;9.00;60.72;91853.59;4958947;28;20045;-77
2021/05/12 05:25:24;;;;;;;0.30;0.30;;;;;;;9.18;60.32;91850.09;4978845;28;20497;-77
2021/05/12 05:27:50;;;;;;;0.40;0.40;;;;;;;9.36;60.26;91855.47;4974214;28;20031;-77
2021/05/12 05:30:16;;;;;;;0.30;0.30;;;;;;;9.46;61.16;91854.50;4971605;28;20039;-77
2021/05/12 05:33:01;;;;;;;1.10;0.50;;;;;;;9.57;61.18;91861.81;4976755;28;20061;-77
2021/05/12 05:35:46;;;;;;;0.50;0.50;;;;;;;9.69;60.50;91860.53;4972350;28;20527;-77
2021/05/12 05:38:30;;;;;;;0.30;0.30;;;;;;;9.75;59.57;91852.28;4965074;28;20461;-77
2021/05/12 05:41:14;;;;;;;0.50;0.43;;;;;;;9.94;57.70;91859.19;4973017;28;20038;-77
2021/05/12 05:43:58;;;;;;;0.45;0.40;;;;;;;10.18;55.87;91856.28;4974466;28;20069;-77
2021/05/12 05:46:42;;;;;;;0.35;0.35;;;;;;;10.32;55.86;91848.38;4974050;28;20054;-77
2021/05/12 05:49:27;;;;;;;1.15;0.50;;;;;;;10.49;58.03;91855.53;4975806;28;20432;-77
2021/05/12 05:52:11;;;;;;;0.60;0.60;;;;;;;10.72;58.99;91851.06;4973083;28;20093;-77
2021/05/12 05:54:55;;;;;;;0.50;0.50;;;;;;;10.93;59.42;91852.03;4973825;28;20429;-77
2021/05/12 05:57:39;;;;;;;2.17;0.80;;;;;;;12.42;56.30;91852.94;4987931;28;20101;-77
2021/05/12 06:00:24;;;;;;;0.77;0.60;;;;;;;16.18;44.85;91844.03;4975163;28;20050;-77
2021/05/12 06:02:49;;;;;;;1.25;0.80;;;;;;;18.51;37.35;91844.88;4970245;28;20038;-77
2021/05/12 06:05:34;;;;;;;0.63;0.60;;;;;;;20.26;35.07;91847.97;4976983;28;20412;-77
2021/05/12 06:08:18;;;;;;;2.28;0.80;;;;;;;21.96;32.73;91841.94;4987051;28;20074;-77
2021/05/12 06:11:02;;;;;;;2.08;0.88;;;;;;;22.97;30.36;91843.09;4974188;28;20066;-77
2021/05/12 06:13:48;;;;;;;2.35;1.00;;;;;;;24.02;30.71;91839.31;4975149;28;20101;-77
2021/05/12 06:16:32;;;;;;;2.20;1.10;;;;;;;24.54;28.30;91841.47;4972239;28;20054;-78
2021/05/12 06:19:16;;;;;;;1.58;0.90;;;;;;;23.96;26.00;91842.75;4988788;28;20100;-78
2021/05/12 06:22:00;;;;;;;5.05;1.40;;;;;;;23.42;30.79;91845.47;4936980;28;20500;-78
2021/05/12 06:24:45;;;;;;;4.63;1.45;;;;;;;23.35;30.00;91843.56;4974275;28;20106;-77
2021/05/12 06:27:28;;;;;;;2.53;1.13;;;;;;;23.44;29.75;91848.50;4979351;28;20174;-78
2021/05/12 06:30:13;;;;;;;6.28;1.73;;;;;;;22.81;32.94;91845.38;4990344;28;20077;-78
2021/05/12 06:32:57;;;;;;;2.58;1.00;;;;;;;21.93;31.13;91847.25;4974760;28;20142;-77
2021/05/12 06:35:42;;;;;;;1.33;0.90;;;;;;;22.72;30.32;91843.06;4974163;28;20053;-77
2021/05/12 06:38:27;;;;;;;1.17;0.95;;;;;;;24.57;28.67;91840.72;4973745;28;20058;-77
2021/05/12 06:40:56;;;;;;;1.23;0.88;;;;;;;25.03;26.19;91828.97;4973402;28;20067;-77
2021/05/12 06:43:22;;;;;;;1.02;0.50;;;;;;;24.09;25.88;91833.97;4988156;28;20086;-77
2021/05/12 06:45:48;;;;;;;0.40;0.40;;;;;;;22.50;25.66;91831.56;4988121;28;20073;-77
2021/05/12 06:48:14;;;;;;;1.90;0.73;;;;;;;21.21;30.16;91841.41;4955665;28;20066;-75
2021/05/12 06:50:40;;;;;;;0.63;0.40;;;;;;;18.79;32.16;91827.97;4973704;28;20097;-77
2021/05/12 06:53:05;;;;;;;3.58;0.50;;;;;;;18.22;34.89;91834.88;4955426;28;20509;-78
2021/05/12 06:55:31;;;;;;;2.70;0.60;;;;;;;17.03;38.02;91829.63;4956478;28;20041;-78
2021/05/12 06:57:57;;;;;;;2.67;0.40;;;;;;;17.12;37.39;91833.97;4976845;28;20378;-78
2021/05/12 07:00:24;;;;;;;1.42;0.70;;;;;;;16.39;39.50;91839.34;4972912;28;20039;-77
2021/05/12 07:02:50;;;;;;;2.60;0.57;;;;;;;15.76;40.03;91842.50;4973261;28;20032;-77
2021/05/12 07:05:16;;;;;;;1.88;0.52;;;;;;;15.39;41.43;91839.13;4972923;28;20057;-77
2021/05/12 07:07:46;;;;;;;1.85;0.45;;;;;;;15.27;41.47;91841.78;4974698;28;20171;-77
2021/05/12 07:10:12;;;;;;;1.27;1.10;;;;;;;14.74;41.61;91852.16;4985464;28;20392;-77
2021/05/12 07:12:38;;;;;;;2.72;0.50;;;;;;;14.36;42.78;91847.84;4972756;28;20125;-77
2021/05/12 07:15:07;;;;;;;1.98;0.70;;;;;;;14.58;42.83;91841.47;4972642;28;20039;-78
2021/05/12 07:17:33;;;;;;;3.05;0.50;;;;;;;14.67;43.11;91836.09;4970449;28;20057;-78
2021/05/12 07:19:58;;;;;;;1.25;0.70;;;;;;;14.69;42.39;91839.94;4962804;28;20043;-78
2021/05/12 07:22:24;;;;;;;0.98;0.50;;;;;;;14.76;40.95;91832.28;4975430;28;20030;-79
2021/05/12 07:24:50;;;;;;;1.25;0.55;;;;;;;14.46;44.83;91841.41;4957678;28;20105;-80
2021/05/12 07:27:19;;;;;;;1.27;0.65;;;;;;;14.61;46.01;91840.81;4973305;28;20037;-77
2021/05/12 07:29:45;;;;;;;4.00;1.05;;;;;;;14.79;43.57;91836.13;4975605;28;20101;-77
2021/05/12 07:32:11;;;;;;;1.08;0.60;;;;;;;14.85;41.95;91847.22;4990245;28;20038;-78
2021/05/12 07:34:36;;;;;;;2.10;0.50;;;;;;;15.17;43.84;91838.44;4974968;28;20054;-77
2021/05/12 07:37:03;;;;;;;1.50;0.73;;;;;;;15.28;42.80;91830.13;4975161;28;20105;-77
2021/05/12 07:39:31;;;;;;;0.60;0.40;;;;;;;15.26;41.02;91843.63;4958591;28;20039;-77
2021/05/12 07:42:02;;;;;;;1.05;0.60;;;;;;;15.60;43.45;91836.34;4955407;29;20437;-77
2021/05/12 07:44:28;;;;;;;0.45;0.40;;;;;;;15.78;42.08;91834.25;4976720;28;20031;-78
2021/05/12 07:46:54;;;;;;;2.58;0.70;;;;;;;15.81;40.66;91838.88;4989123;28;20038;-77
2021/05/12 07:49:20;;;;;;;1.98;0.30;;;;;;;15.52;38.50;91835.38;4974378;28;20039;-77
2021/05/12 07:51:45;;;;;;;0.57;0.50;;;;;;;15.68;38.96;91845.25;4973872;28;20514;-77
2021/05/12 07:54:11;;;;;;;0.40;0.40;;;;;;;16.06;42.42;91839.56;4974663;28;20026;-76
2021/05/12 07:56:36;;;;;;;0.55;0.45;;;;;;;16.45;38.26;91830.03;4974745;28;20049;-76
2021/05/12 07:59:02;;;;;;;2.38;0.70;;;;;;;16.32;40.83;91831.19;4974577;28;20031;-76
2021/05/12 08:01:31;;;;;;;1.55;0.40;;;;;;;16.68;38.92;91826.06;4975120;28;20039;-77
2021/05/12 08:03:57;;;;;;;1.40;0.60;;;;;;;16.49;39.11;91829.38;4974690;28;20469;-77
2021/05/12 08:06:22;;;;;;;1.33;0.50;;;;;;;16.67;40.68;91827.97;4974234;28;20046;-77
2021/05/12 08:08:48;;;;;;;1.20;0.50;;;;;;;16.90;38.61;91824.78;4989183;28;20558;-77
2021/05/12 08:11:14;;;;;;;0.70;0.30;;;;;;;17.30;37.99;91823.81;4989422;28;20043;-78
2021/05/12 08:13:40;;;;;;;0.57;0.20;;;;;;;16.96;37.12;91821.53;4974528;28;20507;-77
2021/05/12 08:16:05;;;;;;;0.38;0.38;;;;;;;17.39;37.99;91827.06;4974594;28;20054;-78
2021/05/12 08:18:31;;;;;;;1.30;0.25;;;;;;;17.60;34.74;91832.03;4971897;28;20057;-76
2021/05/12 08:20:57;;;;;;;0.52;0.40;;;;;;;17.36;35.70;91828.50;4974333;28;20545;-77
2021/05/12 08:23:24;;;;;;;2.53;0.43;;;;;;;17.27;38.09;91822.63;4974340;28;20035;-77
2021/05/12 08:25:50;;;;;;;1.85;0.38;;;;;;;17.26;34.43;91826.38;4956845;28;20069;-77
2021/05/12 08:28:17;;;;;;;0.17;0.17;;;;;;;17.38;35.91;91836.09;4974311;28;20027;-78
2021/05/12 08:30:47;;;;;;;0.30;0.30;;;;;;;17.60;32.79;91827.50;4974908;28;20417;-77
2021/05/12 08:33:14;;;;;;;1.95;0.35;;;;;;;17.55;37.17;91829.66;4966740;28;20097;-78
2021/05/12 08:35:42;;;;;;;2.72;0.50;;;;;;;17.82;37.71;91838.59;4994194;28;20034;-76
2021/05/12 08:38:09;;;;;;;2.03;0.77;;;;;;;17.81;35.76;91831.72;4992709;28;20121;-77
2021/05/12 08:40:35;;;;;;;1.23;0.30;;;;;;;17.52;35.06;91840.91;4974709;28;20035;-77
2021/05/12 08:43:03;;;;;;;2.00;0.47;;;;;;;17.56;37.06;91829.34;4988820;28;20038;-75
2021/05/12 08:45:30;;;;;;;3.72;0.40;;;;;;;18.07;35.95;91837.22;4941464;28;20030;-76
2021/05/12 08:47:56;;;;;;;3.20;0.45;;;;;;;17.85;34.74;91836.00;4974529;28;20059;-76
2021/05/12 08:50:26;;;;;;;0.47;0.32;;;;;;;17.57;33.48;91833.50;4975794;28;20023;-78
2021/05/12 08:52:52;;;;;;;0.90;0.50;;;;;;;18.01;33.14;91829.91;4975018;28;20035;-77
2021/05/12 08:55:19;;;;;;;0.98;0.45;;;;;;;17.78;33.46;91837.72;4974303;28;20035;-78
2021/05/12 08:57:44;;;;;;;0.45;0.28;;;;;;;17.78;34.07;91832.41;4989205;28;20039;-77
2021/05/12 09:00:11;;;;;;;0.30;0.25;;;;;;;17.59;37.18;91830.53;4972879;28;20147;-78
2021/05/12 09:02:37;;;;;;;0.57;0.40;;;;;;;18.09;33.56;91836.88;4974203;28;20050;-78
2021/05/12 09:05:06;;;;;;;2.13;0.30;;;;;;;18.18;34.43;91834.78;4975936;28;20062;-77
2021/05/12 09:07:31;;;;;;;0.20;0.20;;;;;;;18.54;33.27;91832.81;4960640;28;20027;-78
2021/05/12 09:09:57;;;;;;;0.17;0.17;;;;;;;18.91;33.36;91833.13;4954952;29;20038;-78
2021/05/12 09:12:23;;;;;;;1.40;0.30;;;;;;;18.99;32.07;91833.25;4970381;28;20094;-78
2021/05/12 09:14:55;;;;;;;1.85;1.10;;;;;;;19.00;34.00;91824.91;4954504;29;20039;-78
2021/05/12 09:17:32;;;;;;;1.75;0.73;;;;;;;19.21;33.06;91829.06;4954015;28;20054;-78
2021/05/12 09:19:58;;;;;;;4.05;0.57;;;;;;;18.54;33.48;91838.13;4957262;28;20123;-78
2021/05/12 09:22:24;;;;;;;0.20;0.20;;;;;;;18.41;29.83;91826.91;4975662;28;20568;-79
2021/05/12 09:25:05;;;;;;;0.63;0.20;;;;;;;18.71;33.37;91819.13;4975754;28;20134;-78
2021/05/12 09:27:30;;;;;;;0.20;0.20;;;;;;;18.06;30.33;91822.44;4975877;28;20043;-78
2021/05/12 09:30:00;;;;;;;0.40;0.22;;;;;;;18.25;29.45;91826.97;4974219;28;20039;-77
2021/05/12 09:32:41;;;;;;;0.20;0.20;;;;;;;18.52;29.12;91817.25;4975570;28;20417;-77
2021/05/12 09:35:07;;;;;;;1.00;0.20;;;;;;;18.25;30.78;91821.69;4956724;28;20039;-77
2021/05/12 09:37:39;;;;;;;0.30;0.20;;;;;;;17.77;33.18;91815.78;4974453;28;20034;-78
2021/05/12 09:40:19;;;;;;;0.80;0.40;;;;;;;18.41;35.33;91821.59;4973312;28;20042;-76
2021/05/12 09:42:58;;;;;;;0.70;0.43;;;;;;;18.45;29.01;91822.44;4973890;28;20046;-77
2021/05/12 09:45:26;;;;;;;0.20;0.20;;;;;;;18.24;31.90;91809.56;4974040;28;20039;-77
2021/05/12 09:48:00;;;;;;;2.78;0.28;;;;;;;18.65;38.75;91809.16;4974009;28;20031;-78
2021/05/12 09:50:30;;;;;;;1.48;0.47;;;;;;;18.87;37.74;91815.63;4991168;28;20393;-78
2021/05/12 09:52:58;;;;;;;0.65;0.32;;;;;;;19.04;34.74;91804.53;4993993;28;20464;-77
2021/05/12 09:55:37;;;;;;;1.52;0.38;;;;;;;18.78;30.81;91813.22;4993538;28;20034;-77
2021/05/12 09:58:05;;;;;;;0.45;0.30;;;;;;;19.27;32.07;91812.50;4987499;28;20476;-78
2021/05/12 10:00:33;;;;;;;0.10;0.10;;;;;;;18.79;31.14;91811.31;4977209;28;20034;-77
2021/05/12 10:03:00;;;;;;;0.50;0.32;;;;;;;19.30;31.68;91811.00;4977015;28;20109;-78
2021/05/12 10:05:27;;;;;;;0.35;0.25;;;;;;;19.19;32.08;91820.69;4977693;28;20035;-77
2021/05/12 10:07:57;;;;;;;0.50;0.38;;;;;;;19.62;36.63;91813.34;4977826;28;20038;-78
2021/05/12 10:10:41;;;;;;;0.60;0.28;;;;;;;19.76;31.96;91806.38;4977616;28;20035;-78
2021/05/12 10:13:08;;;;;;;0.65;0.28;;;;;;;19.67;33.66;91811.16;4977260;28;20528;-78
2021/05/12 10:15:34;;;;;;;2.63;0.30;;;;;;;19.82;31.41;91814.03;4977271;28;20046;-78
2021/05/12 10:18:01;;;;;;;1.98;0.30;;;;;;;20.14;32.77;91804.56;4974096;28;20050;-78
2021/05/12 10:20:27;;;;;;;0.57;0.45;;;;;;;20.51;32.08;91817.16;4976789;28;20509;-78
2021/05/12 10:22:56;;;;;;;0.40;0.32;;;;;;;20.90;30.52;91808.06;4976929;28;20100;-78
2021/05/12 10:25:22;;;;;;;0.22;0.22;;;;;;;20.46;28.96;91809.47;4977069;28;20059;-77
2021/05/12 10:27:49;;;;;;;0.20;0.20;;;;;;;20.93;29.15;91809.97;4977626;28;20046;-78
2021/05/12 10:30:16;;;;;;;1.45;0.30;;;;;;;20.40;27.60;91802.97;4977027;28;20035;-77
2021/05/12 10:32:54;;;;;;;0.45;0.30;;;;;;;20.14;27.01;91798.50;4977360;28;20042;-78
2021/05/12 10:35:32;;;;;;;0.60;0.30;;;;;;;19.79;29.80;91796.16;4990824;28;20047;-78
2021/05/12 10:37:58;;;;;;;0.63;0.45;;;;;;;19.94;32.08;91800.53;4976867;28;20121;-78
2021/05/12 10:40:31;;;;;;;0.20;0.20;;;;;;;20.70;32.36;91800.25;4976821;28;20030;-78
2021/05/12 10:43:26;;;;;;;0.50;0.30;;;;;;;20.49;27.23;91794.69;4977415;28;20041;-78
2021/05/12 10:45:55;;;;;;;0.32;0.32;;;;;;;20.11;30.50;91792.00;4978313;28;20031;-78
2021/05/12 10:48:46;;;;;;;0.88;0.30;;;;;;;20.68;27.39;91788.47;4959150;28;20039;-78
2021/05/12 10:51:24;;;;;;;0.25;0.25;;;;;;;20.88;26.60;91787.13;4977380;28;20440;-78
2021/05/12 10:53:52;;;;;;;0.22;0.20;;;;;;;19.97;25.53;91789.16;4976791;28;20046;-78
2021/05/12 10:56:23;;;;;;;1.05;0.47;;;;;;;19.95;27.99;91781.59;4959339;28;20035;-76
2021/05/12 10:59:04;;;;;;;0.15;0.10;;;;;;;20.01;31.40;91787.31;4977327;28;20446;-78
2021/05/12 11:01:42;;;;;;;1.35;0.20;;;;;;;19.56;31.93;91779.13;4958700;28;20039;-78
2021/05/12 11:04:13;;;;;;;0.50;0.32;;;;;;;19.86;28.62;91777.66;4992527;28;20030;-77
2021/05/12 11:06:39;;;;;;;0.22;0.20;;;;;;;18.81;29.18;91791.28;4987268;28;20131;-77
2021/05/12 11:09:17;;;;;;;2.15;0.30;;;;;;;18.17;30.14;91790.88;4995856;28;20062;-78
2021/05/12 11:11:49;;;;;;;0.90;0.30;;;;;;;18.52;29.43;91782.03;4995792;28;20042;-78
2021/05/12 11:14:32;;;;;;;1.20;0.30;;;;;;;19.15;28.69;91783.47;4995451;28;20100;-78
2021/05/12 11:17:09;;;;;;;0.25;0.25;;;;;;;18.86;28.88;91774.31;4987865;28;20054;-78
2021/05/12 11:19:37;;;;;;;0.30;0.30;;;;;;;19.37;28.08;91775.84;4959936;28;20077;-78
2021/05/12 11:22:24;;;;;;;3.63;0.32;;;;;;;19.37;28.72;91773.19;4975602;28;20089;-78
2021/05/12 11:24:53;;;;;;;1.27;0.47;;;;;;;19.31;29.18;91776.13;4975991;28;20030;-78
2021/05/12 11:28:16;;;;;;;0.55;0.43;;;;;;;19.31;32.10;91770.81;4975869;28;20025;-78
2021/05/12 11:32:35;;;;;;;0.73;0.40;;;;;;;19.65;31.88;91778.88;4976233;28;20093;-78
2021/05/12 11:35:03;;;;;;;1.00;0.50;;;;;;;19.82;33.33;91771.56;4958991;28;20039;-79
2021/05/12 11:37:31;;;;;;;0.40;0.40;;;;;;;19.81;31.88;91762.03;4975380;28;20061;-78
2021/05/12 11:39:57;;;;;;;1.17;0.32;;;;;;;19.58;32.14;91762.84;4976078;28;20042;-77
2021/05/12 11:42:31;;;;;;;0.77;0.50;;;;;;;19.57;30.94;91764.00;4942094;28;20023;-78
2021/05/12 11:45:16;;;;;;;0.65;0.35;;;;;;;18.98;31.16;91755.56;4958095;28;20062;-76
2021/05/12 11:47:45;;;;;;;0.60;0.30;;;;;;;18.55;30.30;91754.81;4975652;28;20039;-77
2021/05/12 11:50:20;;;;;;;2.15;0.55;;;;;;;18.43;32.06;91757.66;4976192;28;20070;-77